Terminal Aerodrome Forecast
Issued by NWS

Home | Current Version | Previous Version | Text Only | Print | Product List | Glossary On
Versions: 1 2 3 4 5 6 7 8 9 10 11 12
000
FTUS42 KTBW 312300
TAFLAL
TAF
KLAL 312331Z 0100/0124 08011KT P6SM SCT250
     FM010300 09004KT P6SM SCT250
     FM011500 14010G16KT P6SM SCT050 SCT250
      AMD NOT SKED 0103/0112=

USA.gov is the U.S. government's official web portal to all federal, state and local government web resources and services.